createdAt,value
2023-05-02T00:01:51.046Z,92.85
2023-05-02T00:04:18.841Z,92.94
2023-05-02T00:06:47.130Z,92.44
2023-05-02T00:09:15.616Z,93.28
2023-05-02T00:11:44.800Z,93.06
2023-05-02T00:14:12.432Z,93.26
2023-05-02T00:16:40.312Z,92.83
2023-05-02T00:19:08.056Z,92.19
2023-05-02T00:21:35.944Z,92.26
2023-05-02T00:24:03.607Z,92.39
2023-05-02T00:26:31.438Z,93.15
2023-05-02T00:29:01.124Z,92.72
2023-05-02T00:31:28.888Z,92.44
2023-05-02T00:33:57.120Z,92.27
2023-05-02T00:36:24.799Z,92.67
2023-05-02T00:38:52.459Z,92.37
2023-05-02T00:41:20.055Z,92.03
2023-05-02T00:43:47.596Z,92.28
2023-05-02T00:46:16.868Z,92.07
2023-05-02T00:48:45.203Z,92.26
2023-05-02T00:51:13.384Z,92.99
2023-05-02T00:53:41.443Z,93.23
2023-05-02T00:56:09.509Z,92.98
2023-05-02T00:58:39.671Z,92.69
2023-05-02T01:01:23.724Z,93.22
2023-05-02T01:04:02.208Z,93.26
2023-05-02T01:06:42.190Z,92.95
2023-05-02T01:09:22.874Z,93.07
2023-05-02T01:11:57.774Z,93.05
2023-05-02T01:14:27.819Z,92.95
2023-05-02T01:16:59.851Z,93.12
2023-05-02T01:19:39.334Z,93.39
2023-05-02T01:22:10.560Z,93.22
2023-05-02T01:24:47.552Z,93.40
2023-05-02T01:27:23.515Z,92.99
2023-05-02T01:29:54.522Z,92.44
2023-05-02T01:32:24.893Z,92.03
2023-05-02T01:34:54.129Z,92.07
2023-05-02T01:37:24.638Z,92.26
2023-05-02T01:39:53.138Z,91.55
2023-05-02T01:42:21.901Z,92.09
2023-05-02T01:44:52.702Z,92.02
2023-05-02T01:47:22.977Z,92.11
2023-05-02T01:49:51.129Z,92.57
2023-05-02T01:52:23.243Z,92.65
2023-05-02T01:54:52.971Z,92.08
2023-05-02T01:57:21.229Z,92.72
2023-05-02T01:59:51.132Z,92.41
2023-05-02T02:02:21.364Z,92.28
2023-05-02T02:04:50.179Z,92.33
2023-05-02T02:07:18.065Z,92.71
2023-05-02T02:09:45.646Z,92.21
2023-05-02T02:12:18.684Z,92.56
2023-05-02T02:14:51.982Z,92.63
2023-05-02T02:17:27.236Z,92.93
2023-05-02T02:19:57.476Z,92.52
2023-05-02T02:22:28.516Z,92.19
2023-05-02T02:24:57.401Z,92.45
2023-05-02T02:27:25.501Z,91.91
2023-05-02T02:29:53.079Z,91.90
2023-05-02T02:32:20.791Z,91.65
2023-05-02T02:34:49.727Z,91.56
2023-05-02T02:37:19.897Z,91.55
2023-05-02T02:39:57.029Z,91.20
2023-05-02T02:42:35.262Z,91.27
2023-05-02T02:45:10.807Z,91.07
2023-05-02T02:47:47.258Z,91.08
2023-05-02T02:50:24.076Z,91.31
2023-05-02T02:52:56.267Z,90.85
2023-05-02T02:55:32.745Z,91.33
2023-05-02T02:58:05.095Z,91.61
2023-05-02T03:00:34.244Z,91.19
2023-05-02T03:03:01.959Z,91.52
2023-05-02T03:05:33.969Z,90.99
2023-05-02T03:08:01.924Z,91.43
2023-05-02T03:10:29.562Z,91.53
2023-05-02T03:12:57.435Z,92.04
2023-05-02T03:16:17.724Z,91.45
2023-05-02T03:18:47.002Z,91.12
2023-05-02T03:21:16.288Z,91.43
2023-05-02T03:23:44.318Z,91.17
2023-05-02T03:26:12.069Z,91.35
2023-05-02T03:28:40.651Z,91.17
2023-05-02T03:31:08.719Z,91.65
2023-05-02T03:33:40.103Z,91.76
2023-05-02T03:36:08.591Z,91.33
2023-05-02T03:38:37.853Z,91.69
2023-05-02T03:41:09.215Z,91.41
2023-05-02T03:43:37.826Z,91.66
2023-05-02T03:46:07.781Z,91.58
2023-05-02T03:48:37.975Z,91.55
2023-05-02T03:51:09.710Z,91.46
2023-05-02T03:53:44.528Z,91.25
2023-05-02T03:56:13.436Z,92.03
2023-05-02T03:58:49.891Z,92.24
2023-05-02T04:01:21.618Z,91.62
2023-05-02T04:03:51.624Z,91.99
2023-05-02T04:06:21.740Z,92.22
2023-05-02T04:08:58.888Z,92.47
2023-05-02T04:11:31.018Z,92.41
2023-05-02T04:13:59.037Z,92.59
2023-05-02T04:16:26.815Z,93.56
2023-05-02T04:18:54.773Z,93.97
2023-05-02T04:21:23.106Z,93.59
2023-05-02T04:23:50.794Z,94.00
2023-05-02T04:26:20.197Z,93.62
2023-05-02T04:28:54.831Z,93.24
2023-05-02T04:31:22.863Z,93.21
2023-05-02T04:33:52.028Z,92.77
2023-05-02T04:36:23.944Z,93.13
2023-05-02T04:38:52.236Z,92.70
2023-05-02T04:41:21.909Z,92.97
2023-05-02T04:43:56.266Z,92.61
2023-05-02T04:46:23.968Z,92.30
2023-05-02T04:48:51.803Z,92.26
2023-05-02T04:51:20.640Z,92.23
2023-05-02T04:53:50.491Z,92.35
2023-05-02T04:56:18.420Z,91.88
2023-05-02T04:58:47.377Z,91.92
2023-05-02T05:01:15.158Z,92.11
2023-05-02T05:03:43.225Z,92.41
2023-05-02T05:06:11.149Z,91.80
2023-05-02T05:08:39.825Z,91.72
2023-05-02T05:11:08.101Z,91.61
2023-05-02T05:13:37.639Z,91.54
2023-05-02T05:16:08.406Z,91.62
2023-05-02T05:18:40.805Z,91.00
2023-05-02T05:21:11.658Z,91.30
2023-05-02T05:23:45.731Z,91.05
2023-05-02T05:26:17.802Z,91.00
2023-05-02T05:28:50.733Z,91.14
2023-05-02T05:31:22.843Z,91.57
2023-05-02T05:33:54.118Z,91.30
2023-05-02T05:36:23.861Z,91.35
2023-05-02T05:38:52.347Z,91.53
2023-05-02T05:41:21.038Z,91.56
2023-05-02T05:43:53.154Z,92.00
2023-05-02T05:46:22.817Z,92.01
2023-05-02T05:48:50.936Z,92.24
2023-05-02T05:51:19.471Z,91.55
2023-05-02T05:53:47.468Z,91.59
2023-05-02T05:56:15.636Z,91.75
2023-05-02T05:58:49.560Z,90.92
2023-05-02T06:01:17.891Z,90.45
2023-05-02T06:03:48.213Z,90.75
2023-05-02T06:06:17.164Z,90.77
2023-05-02T06:08:44.804Z,90.59
2023-05-02T06:11:12.818Z,91.07
2023-05-02T06:13:41.406Z,90.49
2023-05-02T06:16:09.661Z,90.02
2023-05-02T06:18:37.370Z,90.75
2023-05-02T06:21:07.352Z,89.68
2023-05-02T06:23:35.033Z,89.37
2023-05-02T06:26:03.687Z,88.59
2023-05-02T06:28:32.181Z,87.85
2023-05-02T06:31:01.282Z,88.08
2023-05-02T06:33:29.031Z,88.48
2023-05-02T06:35:58.172Z,88.50
2023-05-02T06:38:28.316Z,89.16
2023-05-02T06:40:56.094Z,89.36
2023-05-02T06:43:23.891Z,88.74
2023-05-02T06:45:54.477Z,87.70
2023-05-02T06:48:22.515Z,87.97
2023-05-02T06:50:50.367Z,87.10
2023-05-02T06:53:18.056Z,88.22
2023-05-02T06:55:48.577Z,89.29
2023-05-02T06:58:16.243Z,88.43
2023-05-02T07:00:44.087Z,87.61
2023-05-02T07:03:12.637Z,87.06
2023-05-02T07:05:40.558Z,87.00
2023-05-02T07:08:09.054Z,86.72
2023-05-02T07:10:37.288Z,85.82
2023-05-02T07:13:06.225Z,85.75
2023-05-02T07:15:34.220Z,86.20
2023-05-02T07:18:02.152Z,85.73
2023-05-02T07:20:30.084Z,85.12
2023-05-02T07:22:57.735Z,84.75
2023-05-02T07:25:25.500Z,84.45
2023-05-02T07:27:53.102Z,83.59
2023-05-02T07:30:22.400Z,82.96
2023-05-02T07:32:50.119Z,82.94
2023-05-02T07:35:18.633Z,83.68
2023-05-02T07:37:46.317Z,84.61
2023-05-02T07:40:14.411Z,83.56
2023-05-02T07:42:42.125Z,83.06
2023-05-02T07:45:10.535Z,81.36
2023-05-02T07:47:39.548Z,79.58
2023-05-02T07:50:08.978Z,80.85
2023-05-02T07:52:36.606Z,81.12
2023-05-02T07:55:05.111Z,80.90
2023-05-02T07:57:32.859Z,81.39
2023-05-02T08:00:00.760Z,80.02
2023-05-02T08:02:29.131Z,79.23
2023-05-02T08:04:58.259Z,77.69
2023-05-02T08:07:26.179Z,76.59
2023-05-02T08:09:53.771Z,76.52
2023-05-02T08:12:21.534Z,75.38
2023-05-02T08:14:49.162Z,76.58
2023-05-02T08:17:16.995Z,77.22
2023-05-02T08:19:44.593Z,75.75
2023-05-02T08:22:13.625Z,74.44
2023-05-02T08:24:41.225Z,73.18
2023-05-02T08:27:08.830Z,71.50
2023-05-02T08:29:36.478Z,71.42
2023-05-02T08:32:04.838Z,72.70
2023-05-02T08:34:33.761Z,72.90
2023-05-02T08:37:01.525Z,72.29
2023-05-02T08:39:34.043Z,73.12
2023-05-02T08:42:02.278Z,72.79
2023-05-02T08:44:29.933Z,73.10
2023-05-02T08:46:59.238Z,72.03
2023-05-02T08:49:28.669Z,70.20
2023-05-02T08:51:57.977Z,70.54
2023-05-02T08:54:26.980Z,70.22
2023-05-02T08:56:56.112Z,72.27
2023-05-02T08:59:23.843Z,71.74
2023-05-02T09:01:56.649Z,72.24
2023-05-02T09:04:29.026Z,72.37
2023-05-02T09:06:57.236Z,70.91
2023-05-02T09:09:25.398Z,71.28
2023-05-02T09:11:53.575Z,72.00
2023-05-02T09:14:22.522Z,71.10
2023-05-02T09:16:50.514Z,73.56
2023-05-02T09:19:26.882Z,72.81
2023-05-02T09:22:01.299Z,72.88
2023-05-02T09:24:29.448Z,73.30
2023-05-02T09:27:02.669Z,73.41
2023-05-02T09:29:36.085Z,72.59
2023-05-02T09:32:04.752Z,71.53
2023-05-02T09:34:32.726Z,70.31
2023-05-02T09:37:00.389Z,69.58
2023-05-02T09:39:29.997Z,69.56
2023-05-02T09:41:59.050Z,68.89
2023-05-02T09:44:28.053Z,69.41
2023-05-02T09:46:58.982Z,68.49
2023-05-02T09:49:41.232Z,68.74
2023-05-02T09:52:12.852Z,68.04
2023-05-02T09:54:40.726Z,66.64
2023-05-02T09:57:08.459Z,66.28
2023-05-02T09:59:36.395Z,64.67
2023-05-02T10:02:07.292Z,63.93
2023-05-02T10:04:35.542Z,65.08
2023-05-02T10:07:06.564Z,67.44
2023-05-02T10:09:37.120Z,65.83
2023-05-02T10:12:05.137Z,62.56
2023-05-02T10:14:40.236Z,62.05
2023-05-02T10:17:13.828Z,63.68
2023-05-02T10:19:49.957Z,63.98
2023-05-02T10:22:20.622Z,63.34
2023-05-02T10:24:50.190Z,63.40
2023-05-02T10:27:18.119Z,63.23
2023-05-02T10:29:47.771Z,64.34
2023-05-02T10:32:19.403Z,64.32
2023-05-02T10:34:47.526Z,64.93
2023-05-02T10:37:16.815Z,65.03
2023-05-02T10:39:44.700Z,65.23
2023-05-02T10:42:12.429Z,65.54
2023-05-02T10:44:41.710Z,64.81
2023-05-02T10:47:21.308Z,65.46
2023-05-02T10:49:53.659Z,65.53
2023-05-02T10:52:29.500Z,65.81
2023-05-02T10:55:17.973Z,66.01
2023-05-02T10:58:23.491Z,65.00
2023-05-02T11:00:51.122Z,65.00
2023-05-02T11:03:54.732Z,64.75
2023-05-02T11:06:24.504Z,63.37
2023-05-02T11:08:52.263Z,62.94
2023-05-02T11:11:42.787Z,61.62
2023-05-02T11:14:11.709Z,59.36
2023-05-02T11:17:08.383Z,58.78
2023-05-02T11:20:26.232Z,59.42
2023-05-02T11:22:59.508Z,57.86
2023-05-02T11:25:36.088Z,56.28
2023-05-02T11:28:04.534Z,50.00
2023-05-02T11:30:44.189Z,52.83
2023-05-02T11:33:16.055Z,53.47
2023-05-02T11:35:46.662Z,54.49
2023-05-02T11:38:17.485Z,54.66
2023-05-02T11:40:59.494Z,54.38
2023-05-02T11:43:31.228Z,55.08
2023-05-02T11:46:01.725Z,57.40
2023-05-02T11:48:30.943Z,57.21
2023-05-02T11:51:02.303Z,57.65
2023-05-02T11:53:32.095Z,57.33
2023-05-02T11:56:01.535Z,56.74
2023-05-02T11:58:32.840Z,55.79
2023-05-02T12:01:12.364Z,55.88
2023-05-02T12:03:40.789Z,57.69
2023-05-02T12:06:13.247Z,57.13
2023-05-02T12:08:44.223Z,55.87
2023-05-02T12:11:14.532Z,55.98
2023-05-02T12:13:47.581Z,54.94
2023-05-02T12:16:15.617Z,54.96
2023-05-02T12:18:43.751Z,55.22
2023-05-02T12:21:11.794Z,56.49
2023-05-02T12:23:42.894Z,54.38
2023-05-02T12:26:22.052Z,53.82
2023-05-02T12:28:50.960Z,54.46
2023-05-02T12:31:19.109Z,50.94
2023-05-02T12:33:48.747Z,52.27
2023-05-02T12:36:16.485Z,50.85
2023-05-02T12:38:52.444Z,49.81
2023-05-02T12:41:20.965Z,51.61
2023-05-02T12:43:51.213Z,53.11
2023-05-02T12:46:18.881Z,54.42
2023-05-02T12:48:46.813Z,56.82
2023-05-02T12:51:24.624Z,57.25
2023-05-02T12:53:53.521Z,54.82
2023-05-02T12:56:22.073Z,57.37
2023-05-02T12:58:50.794Z,55.70
2023-05-02T13:01:18.430Z,51.18
2023-05-02T13:03:46.161Z,51.94
2023-05-02T13:06:13.937Z,50.42
2023-05-02T13:08:41.497Z,49.35
2023-05-02T13:11:10.444Z,51.58
2023-05-02T13:13:38.023Z,52.02
2023-05-02T13:16:06.239Z,53.58
2023-05-02T13:18:33.974Z,51.51
2023-05-02T13:21:01.604Z,53.12
2023-05-02T13:23:29.191Z,53.38
2023-05-02T13:25:56.739Z,54.04
2023-05-02T13:28:25.881Z,53.86
2023-05-02T13:30:53.596Z,54.66
2023-05-02T13:33:21.240Z,54.06
2023-05-02T13:35:48.813Z,54.91
2023-05-02T13:38:16.391Z,54.94
2023-05-02T13:40:43.966Z,55.05
2023-05-02T13:43:11.531Z,55.03
2023-05-02T13:45:40.847Z,54.72
2023-05-02T13:48:08.485Z,55.09
2023-05-02T13:50:37.277Z,54.35
2023-05-02T13:53:04.996Z,54.63
2023-05-02T13:55:32.600Z,55.25
2023-05-02T13:58:00.212Z,54.82
2023-05-02T14:00:29.145Z,55.81
2023-05-02T14:02:58.216Z,56.08
2023-05-02T14:05:26.114Z,56.48
2023-05-02T14:07:53.677Z,55.91
2023-05-02T14:10:21.452Z,57.33
2023-05-02T14:12:49.232Z,58.32
2023-05-02T14:15:17.341Z,58.83
2023-05-02T14:17:44.928Z,58.74
2023-05-02T14:20:14.165Z,59.26
2023-05-02T14:22:41.828Z,60.12
2023-05-02T14:25:09.703Z,59.17
2023-05-02T14:27:37.240Z,59.17
2023-05-02T14:30:05.865Z,58.13
2023-05-02T14:32:33.898Z,59.66
2023-05-02T14:35:01.853Z,60.49
2023-05-02T14:37:31.085Z,60.53
2023-05-02T14:39:59.443Z,59.83
2023-05-02T14:42:27.289Z,60.44
2023-05-02T14:44:57.501Z,60.13
2023-05-02T14:47:30.299Z,60.25
2023-05-02T14:49:57.919Z,61.00
2023-05-02T14:52:25.564Z,60.17
2023-05-02T14:54:54.605Z,61.38
2023-05-02T14:57:22.651Z,65.68
2023-05-02T14:59:50.242Z,67.62
2023-05-02T15:02:17.936Z,68.68
2023-05-02T15:04:45.537Z,69.57
2023-05-02T15:07:13.520Z,71.36
2023-05-02T15:09:41.223Z,72.18
2023-05-02T15:12:10.410Z,72.50
2023-05-02T15:14:37.966Z,73.13
2023-05-02T15:17:05.748Z,73.80
2023-05-02T15:19:33.395Z,72.95
2023-05-02T15:22:01.648Z,72.47
2023-05-02T15:24:29.240Z,74.38
2023-05-02T15:26:57.066Z,74.33
2023-05-02T15:29:26.046Z,74.12
2023-05-02T15:31:54.672Z,74.36
2023-05-02T15:34:22.347Z,73.90
2023-05-02T15:36:50.084Z,74.19
2023-05-02T15:39:19.117Z,76.95
2023-05-02T15:41:47.967Z,75.64
2023-05-02T15:44:15.583Z,76.59
2023-05-02T15:46:47.253Z,76.29
2023-05-02T15:49:15.034Z,75.87
2023-05-02T15:51:42.744Z,74.80
2023-05-02T15:54:10.322Z,73.45
2023-05-02T15:56:38.669Z,73.56
2023-05-02T15:59:06.510Z,73.50
2023-05-02T16:01:34.112Z,74.06
2023-05-02T16:04:03.083Z,74.65
2023-05-02T16:06:31.122Z,75.64
2023-05-02T16:08:58.730Z,76.39
2023-05-02T16:11:26.602Z,77.18
2023-05-02T16:13:54.173Z,76.32
2023-05-02T16:16:21.734Z,75.20
2023-05-02T16:18:49.576Z,75.42
2023-05-02T16:21:18.621Z,75.81
2023-05-02T16:23:46.445Z,75.63
2023-05-02T16:26:14.019Z,75.39
2023-05-02T16:28:41.705Z,75.64
2023-05-02T16:31:11.168Z,76.63
2023-05-02T16:33:39.253Z,77.22
2023-05-02T16:36:07.800Z,79.24
2023-05-02T16:38:37.311Z,78.92
2023-05-02T16:41:06.799Z,79.18
2023-05-02T16:43:34.709Z,79.91
2023-05-02T16:46:03.282Z,81.70
2023-05-02T16:48:31.362Z,82.70
2023-05-02T16:51:01.093Z,82.93
2023-05-02T16:53:30.512Z,83.45
2023-05-02T16:55:59.762Z,83.38
2023-05-02T16:58:29.274Z,82.97
2023-05-02T17:00:57.216Z,83.13
2023-05-02T17:03:24.978Z,83.52
2023-05-02T17:05:52.564Z,83.74
2023-05-02T17:08:20.834Z,82.32
2023-05-02T17:10:52.508Z,82.48
2023-05-02T17:13:21.557Z,82.49
2023-05-02T17:15:49.307Z,82.56
2023-05-02T17:18:17.187Z,82.95
2023-05-02T17:20:45.944Z,82.71
2023-05-02T17:23:14.651Z,81.61
2023-05-02T17:25:42.620Z,81.58
2023-05-02T17:28:10.546Z,81.99
2023-05-02T17:30:39.797Z,82.79
2023-05-02T17:33:07.499Z,82.91
2023-05-02T17:35:35.341Z,82.63
2023-05-02T17:38:03.147Z,82.70
2023-05-02T17:40:30.797Z,82.13
2023-05-02T17:42:59.231Z,82.54
2023-05-02T17:45:29.020Z,82.93
2023-05-02T17:47:58.091Z,82.33
2023-05-02T17:50:26.119Z,82.44
2023-05-02T17:52:54.100Z,82.54
2023-05-02T17:55:21.677Z,82.38
2023-05-02T17:57:49.419Z,82.84
2023-05-02T18:00:17.336Z,82.92
2023-05-02T18:02:45.542Z,83.04
2023-05-02T18:05:14.609Z,82.90
2023-05-02T18:07:42.426Z,83.19
2023-05-02T18:10:10.144Z,83.43
2023-05-02T18:12:37.828Z,83.77
2023-05-02T18:15:06.569Z,83.94
2023-05-02T18:17:34.460Z,84.08
2023-05-02T18:20:04.207Z,83.98
2023-05-02T18:22:34.361Z,84.03
2023-05-02T18:25:02.333Z,84.27
2023-05-02T18:27:30.497Z,84.25
2023-05-02T18:29:58.332Z,84.11
2023-05-02T18:32:26.867Z,84.64
2023-05-02T18:34:54.493Z,84.56
2023-05-02T18:37:27.702Z,84.92
2023-05-02T18:39:56.858Z,84.99
2023-05-02T18:42:24.565Z,85.08
2023-05-02T18:44:52.983Z,85.37
2023-05-02T18:47:21.383Z,85.42
2023-05-02T18:49:50.483Z,85.45
2023-05-02T18:52:18.058Z,85.48
2023-05-02T18:54:45.736Z,85.63
2023-05-02T18:57:14.656Z,85.82
2023-05-02T18:59:42.513Z,85.69
2023-05-02T19:02:10.336Z,86.01
2023-05-02T19:04:38.137Z,86.06
2023-05-02T19:07:05.699Z,86.10
2023-05-02T19:09:33.435Z,86.19
2023-05-02T19:12:01.018Z,86.34
2023-05-02T19:14:30.829Z,86.79
2023-05-02T19:16:58.383Z,86.91
2023-05-02T19:19:26.229Z,86.98
2023-05-02T19:21:54.086Z,87.37
2023-05-02T19:24:22.003Z,87.48
2023-05-02T19:26:49.564Z,87.09
2023-05-02T19:29:17.163Z,87.65
2023-05-02T19:31:46.320Z,87.88
2023-05-02T19:34:14.133Z,88.16
2023-05-02T19:36:41.700Z,87.58
2023-05-02T19:39:10.655Z,87.71
2023-05-02T19:41:39.949Z,87.57
2023-05-02T19:44:07.704Z,87.65
2023-05-02T19:46:35.285Z,87.84
2023-05-02T19:49:04.258Z,88.16
2023-05-02T19:51:34.082Z,88.25
2023-05-02T19:54:01.887Z,87.87
2023-05-02T19:56:29.949Z,87.69
2023-05-02T19:58:58.616Z,87.69
2023-05-02T20:01:26.698Z,87.81
2023-05-02T20:03:54.872Z,87.98
2023-05-02T20:06:24.469Z,88.01
2023-05-02T20:08:53.048Z,87.93
2023-05-02T20:11:21.362Z,87.89
2023-05-02T20:13:49.314Z,88.33
2023-05-02T20:16:16.974Z,88.15
2023-05-02T20:18:44.736Z,88.34
2023-05-02T20:21:12.374Z,88.50
2023-05-02T20:23:43.296Z,88.53
2023-05-02T20:26:11.096Z,88.51
2023-05-02T20:28:38.729Z,88.26
2023-05-02T20:31:06.980Z,88.37
2023-05-02T20:33:44.694Z,87.89
2023-05-02T20:36:14.999Z,87.18
2023-05-02T20:38:44.747Z,87.65
2023-05-02T20:41:13.843Z,87.62
2023-05-02T20:43:44.615Z,88.00
2023-05-02T20:46:13.883Z,87.99
2023-05-02T20:48:41.742Z,88.46
2023-05-02T20:51:10.004Z,89.03
2023-05-02T20:53:38.145Z,88.83
2023-05-02T20:56:07.897Z,89.01
2023-05-02T20:58:35.482Z,89.61
2023-05-02T21:01:03.315Z,89.61
2023-05-02T21:03:31.988Z,89.48
2023-05-02T21:06:00.404Z,89.61
2023-05-02T21:08:28.148Z,89.26
2023-05-02T21:10:56.113Z,88.59
2023-05-02T21:13:25.097Z,87.69
2023-05-02T21:15:52.741Z,88.18
2023-05-02T21:18:21.548Z,87.85
2023-05-02T21:20:49.580Z,88.03
2023-05-02T21:23:17.164Z,88.11
2023-05-02T21:25:44.895Z,88.52
2023-05-02T21:28:12.595Z,89.09
2023-05-02T21:30:41.698Z,89.23
2023-05-02T21:33:09.480Z,89.33
2023-05-02T21:35:37.275Z,89.61
2023-05-02T21:38:04.948Z,89.90
2023-05-02T21:40:34.858Z,89.68
2023-05-02T21:43:02.470Z,89.78
2023-05-02T21:45:30.569Z,90.53
2023-05-02T21:48:01.246Z,90.13
2023-05-02T21:50:29.355Z,90.24
2023-05-02T21:52:56.974Z,90.28
2023-05-02T21:55:24.660Z,90.32
2023-05-02T21:57:52.283Z,90.33
2023-05-02T22:00:20.286Z,90.25
2023-05-02T22:02:48.079Z,90.24
2023-05-02T22:05:17.379Z,90.43
2023-05-02T22:07:44.972Z,90.57
2023-05-02T22:10:13.217Z,90.31
2023-05-02T22:12:40.951Z,90.28
2023-05-02T22:15:10.422Z,90.11
2023-05-02T22:17:42.423Z,89.74
2023-05-02T22:20:13.227Z,90.16
2023-05-02T22:22:42.278Z,90.18
2023-05-02T22:25:10.732Z,90.60
2023-05-02T22:27:38.368Z,89.85
2023-05-02T22:30:07.579Z,89.97
2023-05-02T22:32:35.400Z,89.49
2023-05-02T22:35:03.364Z,89.32
2023-05-02T22:37:31.010Z,87.80
2023-05-02T22:40:00.495Z,87.61
2023-05-02T22:42:28.280Z,87.81
2023-05-02T22:44:55.976Z,87.95
2023-05-02T22:47:25.116Z,89.04
2023-05-02T22:49:54.416Z,89.21
2023-05-02T22:52:22.494Z,89.28
2023-05-02T22:54:50.640Z,89.00
2023-05-02T22:57:20.108Z,88.73
2023-05-02T22:59:47.798Z,88.45
2023-05-02T23:02:15.617Z,87.48
2023-05-02T23:04:43.347Z,87.52
2023-05-02T23:07:11.829Z,87.91
2023-05-02T23:09:39.570Z,88.22
2023-05-02T23:12:07.254Z,88.19
2023-05-02T23:14:36.339Z,88.17
2023-05-02T23:17:04.016Z,88.92
2023-05-02T23:19:31.982Z,89.21
2023-05-02T23:22:00.032Z,89.17
2023-05-02T23:24:27.854Z,89.49
2023-05-02T23:26:55.648Z,88.88
2023-05-02T23:29:23.541Z,88.72
2023-05-02T23:31:54.534Z,88.53
2023-05-02T23:34:23.091Z,89.19
2023-05-02T23:36:52.911Z,88.94
2023-05-02T23:39:20.963Z,88.57
2023-05-02T23:41:49.082Z,88.74
2023-05-02T23:44:16.715Z,88.84
2023-05-02T23:46:44.635Z,89.49
2023-05-02T23:49:13.626Z,89.72
2023-05-02T23:51:41.682Z,89.91
2023-05-02T23:54:09.341Z,90.18
2023-05-02T23:56:37.196Z,90.74
2023-05-02T23:59:04.878Z,90.59
